Time;durP1;ratioP1;P1;durP2;ratioP2;P2;SDS_P1;SDS_P2;PMS_P1;PMS_P2;Temp;Humidity;BMP_temperature;BMP_pressure;BME280_temperature;BME280_humidity;BME280_pressure;Samples;Min_cycle;Max_cycle;Signal;HPM_P1;HPM_P2
2022/04/09 00:02:00;;;;;;;;;;;18.50;38.70;;;;;;8334358;28;19925;-49
2022/04/09 00:06:02;;;;;;;;;;;18.50;38.80;;;;;;8333942;28;19929;-49
2022/04/09 00:10:04;;;;;;;;;;;18.50;38.80;;;;;;8334803;28;20357;-50
2022/04/09 00:14:05;;;;;;;;;;;18.50;38.70;;;;;;8334137;28;19917;-51
2022/04/09 00:18:06;;;;;;;;;;;18.50;38.70;;;;;;8332436;28;19944;-49
2022/04/09 00:22:06;;;;;;;;;;;18.40;38.70;;;;;;8333389;28;19990;-48
2022/04/09 00:26:07;;;;;;;;;;;18.40;38.80;;;;;;8333168;28;20406;-49
2022/04/09 00:30:08;;;;;;;;;;;18.40;38.80;;;;;;8332749;28;19924;-50
2022/04/09 00:34:09;;;;;;;;;;;18.40;38.80;;;;;;8332903;28;19924;-49
2022/04/09 00:38:09;;;;;;;;;;;18.40;38.80;;;;;;8332623;28;19921;-48
2022/04/09 00:42:13;;;;;;;;;;;18.40;38.80;;;;;;8332107;28;19932;-50
2022/04/09 00:46:14;;;;;;;;;;;18.40;39.40;;;;;;8332578;28;19924;-50
2022/04/09 00:50:15;;;;;;;;;;;18.40;38.80;;;;;;8332645;28;19932;-50
2022/04/09 00:54:15;;;;;;;;;;;18.40;38.70;;;;;;8331850;28;19921;-50
2022/04/09 00:58:17;;;;;;;;;;;18.40;38.70;;;;;;8332324;28;20340;-49
2022/04/09 01:02:18;;;;;;;;;;;18.40;38.70;;;;;;8331608;28;20401;-53
2022/04/09 01:06:18;;;;;;;;;;;18.40;38.60;;;;;;8331897;28;20007;-49
2022/04/09 01:10:19;;;;;;;;;;;18.40;38.60;;;;;;8332208;28;20008;-49
2022/04/09 01:14:19;;;;;;;;;;;18.40;38.50;;;;;;8331199;28;20441;-51
2022/04/09 01:18:20;;;;;;;;;;;18.40;38.50;;;;;;8331503;28;19917;-53
2022/04/09 01:22:20;;;;;;;;;;;18.40;38.50;;;;;;8331241;28;19926;-50
2022/04/09 01:26:21;;;;;;;;;;;18.30;38.30;;;;;;8331104;28;19917;-53
2022/04/09 01:30:22;;;;;;;;;;;18.40;38.30;;;;;;8331566;28;20267;-49
2022/04/09 01:34:22;;;;;;;;;;;18.40;38.30;;;;;;8331150;28;19921;-49
2022/04/09 01:38:23;;;;;;;;;;;18.30;38.20;;;;;;8331002;28;20440;-51
2022/04/09 01:42:26;;;;;;;;;;;18.30;38.20;;;;;;8331293;28;19929;-51
2022/04/09 01:46:26;;;;;;;;;;;18.30;38.20;;;;;;8331205;28;19944;-53
2022/04/09 01:50:27;;;;;;;;;;;18.30;38.10;;;;;;8330938;28;19913;-50
2022/04/09 01:54:27;;;;;;;;;;;18.30;38.10;;;;;;8330986;28;19917;-51
2022/04/09 01:58:27;;;;;;;;;;;18.40;38.00;;;;;;8330793;28;19987;-53
2022/04/09 02:02:28;;;;;;;;;;;18.30;38.00;;;;;;8330236;28;19978;-54
2022/04/09 02:06:28;;;;;;;;;;;18.30;38.00;;;;;;8330853;28;19917;-49
2022/04/09 02:10:30;;;;;;;;;;;18.30;37.90;;;;;;8331006;28;19913;-50
2022/04/09 02:14:30;;;;;;;;;;;18.30;37.90;;;;;;8330206;28;20290;-50
2022/04/09 02:18:31;;;;;;;;;;;18.30;37.90;;;;;;8330423;28;19917;-49
2022/04/09 02:22:35;;;;;;;;;;;18.30;37.80;;;;;;8330517;28;19964;-49
2022/04/09 02:26:36;;;;;;;;;;;18.30;37.90;;;;;;8329905;28;20016;-52
2022/04/09 02:30:36;;;;;;;;;;;18.30;37.80;;;;;;8330423;28;19939;-53
2022/04/09 02:34:36;;;;;;;;;;;18.30;37.80;;;;;;8330133;28;20001;-52
2022/04/09 02:38:37;;;;;;;;;;;18.30;37.80;;;;;;8329588;28;19925;-51
2022/04/09 02:42:38;;;;;;;;;;;18.30;37.80;;;;;;8334416;28;20270;-50
2022/04/09 02:46:39;;;;;;;;;;;18.20;37.70;;;;;;8336742;28;19966;-49
2022/04/09 02:50:39;;;;;;;;;;;18.20;37.70;;;;;;8336411;28;19987;-50
2022/04/09 02:54:40;;;;;;;;;;;18.20;37.70;;;;;;8337024;28;20286;-50
2022/04/09 02:58:40;;;;;;;;;;;18.20;37.70;;;;;;8336402;28;19921;-50
2022/04/09 03:02:41;;;;;;;;;;;18.20;37.70;;;;;;8335883;28;19925;-48
2022/04/09 03:06:41;;;;;;;;;;;18.20;37.70;;;;;;8336319;28;20004;-51
2022/04/09 03:10:42;;;;;;;;;;;18.10;37.60;;;;;;8336405;28;19919;-51
2022/04/09 03:14:45;;;;;;;;;;;18.10;37.60;;;;;;8335629;28;20378;-52
2022/04/09 03:18:46;;;;;;;;;;;18.20;37.70;;;;;;8335865;28;19921;-49
2022/04/09 03:22:47;;;;;;;;;;;18.20;37.70;;;;;;8335585;28;20342;-48
2022/04/09 03:26:48;;;;;;;;;;;18.20;37.70;;;;;;8335111;28;20305;-51
2022/04/09 03:30:48;;;;;;;;;;;18.20;37.60;;;;;;8336017;28;19953;-48
2022/04/09 03:34:49;;;;;;;;;;;18.20;37.80;;;;;;8335674;28;19917;-50
2022/04/09 03:38:49;;;;;;;;;;;18.10;37.70;;;;;;8334758;28;19918;-49
2022/04/09 03:42:50;;;;;;;;;;;18.10;37.70;;;;;;8335380;28;19925;-51
2022/04/09 03:46:56;;;;;;;;;;;18.10;37.70;;;;;;8335060;28;20366;-50
2022/04/09 03:50:56;;;;;;;;;;;18.10;37.70;;;;;;8334712;28;20284;-50
2022/04/09 03:54:57;;;;;;;;;;;18.10;37.70;;;;;;8334908;28;19917;-53
2022/04/09 03:58:57;;;;;;;;;;;18.10;37.70;;;;;;8334557;28;20052;-50
2022/04/09 04:02:58;;;;;;;;;;;18.10;37.70;;;;;;8341342;28;20007;-51
2022/04/09 04:06:58;;;;;;;;;;;18.10;37.70;;;;;;8367278;28;19913;-49
2022/04/09 04:10:59;;;;;;;;;;;18.10;37.60;;;;;;8367446;28;19920;-50
2022/04/09 04:14:59;;;;;;;;;;;18.10;37.60;;;;;;8366564;28;20464;-53
2022/04/09 04:19:00;;;;;;;;;;;18.10;37.70;;;;;;8367226;28;19917;-50
2022/04/09 04:23:00;;;;;;;;;;;18.10;37.60;;;;;;8366827;28;19925;-51
2022/04/09 04:27:00;;;;;;;;;;;18.10;37.60;;;;;;8366218;28;20419;-49
2022/04/09 04:31:01;;;;;;;;;;;18.10;37.60;;;;;;8366768;28;19917;-49
2022/04/09 04:35:01;;;;;;;;;;;18.10;37.60;;;;;;8366404;28;19921;-50
2022/04/09 04:39:02;;;;;;;;;;;18.10;37.60;;;;;;8365871;28;19924;-50
2022/04/09 04:43:03;;;;;;;;;;;18.00;37.50;;;;;;8366051;28;20310;-52
2022/04/09 04:47:03;;;;;;;;;;;18.00;37.60;;;;;;8366185;28;19936;-52
2022/04/09 04:51:04;;;;;;;;;;;18.00;37.60;;;;;;8365546;28;20274;-53
2022/04/09 04:55:05;;;;;;;;;;;18.00;37.50;;;;;;8365792;28;20370;-50
2022/04/09 04:59:07;;;;;;;;;;;18.00;37.50;;;;;;8365534;28;19927;-51
2022/04/09 05:03:08;;;;;;;;;;;18.00;37.50;;;;;;8364521;28;20298;-49
2022/04/09 05:07:08;;;;;;;;;;;18.00;37.50;;;;;;8365869;28;19913;-52
2022/04/09 05:11:09;;;;;;;;;;;18.00;37.50;;;;;;8365459;28;20398;-48
2022/04/09 05:15:11;;;;;;;;;;;18.00;37.50;;;;;;8364643;28;19917;-51
2022/04/09 05:19:11;;;;;;;;;;;18.00;37.50;;;;;;8364996;28;20281;-49
2022/04/09 05:23:12;;;;;;;;;;;18.00;37.50;;;;;;8364880;28;19932;-50
2022/04/09 05:27:12;;;;;;;;;;;18.00;37.50;;;;;;8364442;28;20399;-52
2022/04/09 05:31:13;;;;;;;;;;;18.00;37.50;;;;;;8364687;28;20023;-53
2022/04/09 05:35:13;;;;;;;;;;;18.00;37.40;;;;;;8346566;28;19924;-53
2022/04/09 05:39:16;;;;;;;;;;;18.00;37.40;;;;;;8363963;28;19943;-51
2022/04/09 05:43:17;;;;;;;;;;;18.00;37.50;;;;;;8364143;28;19935;-51
2022/04/09 05:47:18;;;;;;;;;;;17.90;37.40;;;;;;8363800;28;20278;-52
2022/04/09 05:51:18;;;;;;;;;;;18.00;37.40;;;;;;8364276;28;19917;-54
2022/04/09 05:55:19;;;;;;;;;;;17.90;37.40;;;;;;8364167;28;20453;-52
2022/04/09 05:59:19;;;;;;;;;;;18.00;37.40;;;;;;8363285;28;19920;-53
2022/04/09 06:03:22;;;;;;;;;;;17.90;37.40;;;;;;8363743;28;19932;-50
2022/04/09 06:07:24;;;;;;;;;;;17.90;37.30;;;;;;8363898;28;19916;-50
2022/04/09 06:11:24;;;;;;;;;;;17.90;37.30;;;;;;8362998;28;19927;-51
2022/04/09 06:15:25;;;;;;;;;;;17.90;37.30;;;;;;8362579;28;19924;-53
2022/04/09 06:19:27;;;;;;;;;;;17.90;37.30;;;;;;8363765;28;20072;-53
2022/04/09 06:23:27;;;;;;;;;;;17.90;37.30;;;;;;8362667;28;19925;-54
2022/04/09 06:27:28;;;;;;;;;;;17.90;37.30;;;;;;8363272;28;20005;-52
2022/04/09 06:31:28;;;;;;;;;;;17.90;37.80;;;;;;8363188;28;20349;-52
2022/04/09 06:35:29;;;;;;;;;;;17.90;37.20;;;;;;8362353;28;19916;-50
2022/04/09 06:39:29;;;;;;;;;;;17.90;37.30;;;;;;8363188;28;19917;-51
2022/04/09 06:43:30;;;;;;;;;;;17.90;37.20;;;;;;8362767;28;19932;-51
2022/04/09 06:47:30;;;;;;;;;;;17.90;37.20;;;;;;8362525;28;19917;-48
2022/04/09 06:51:31;;;;;;;;;;;17.90;37.20;;;;;;8362724;28;19920;-49
2022/04/09 06:55:31;;;;;;;;;;;17.90;37.20;;;;;;8362549;28;19917;-50
2022/04/09 06:59:32;;;;;;;;;;;17.90;37.20;;;;;;8362206;28;19944;-49
2022/04/09 07:03:32;;;;;;;;;;;17.90;37.20;;;;;;8360658;28;19963;-49
2022/04/09 07:07:33;;;;;;;;;;;17.90;37.20;;;;;;8363106;28;19956;-48
2022/04/09 07:11:34;;;;;;;;;;;17.90;37.30;;;;;;8361986;28;19978;-50
2022/04/09 07:15:34;;;;;;;;;;;17.90;37.30;;;;;;8362831;28;19917;-50
2022/04/09 07:19:35;;;;;;;;;;;17.90;37.30;;;;;;8362586;28;19959;-50
2022/04/09 07:23:35;;;;;;;;;;;17.90;37.30;;;;;;8361868;28;19925;-49
2022/04/09 07:27:36;;;;;;;;;;;17.90;37.20;;;;;;8364435;28;20443;-50
2022/04/09 07:31:37;;;;;;;;;;;17.90;37.20;;;;;;8368558;28;20444;-50
2022/04/09 07:35:37;;;;;;;;;;;17.90;37.20;;;;;;8367825;28;19932;-49
2022/04/09 07:39:38;;;;;;;;;;;17.90;37.30;;;;;;8368252;28;19920;-52
2022/04/09 07:43:38;;;;;;;;;;;17.90;37.20;;;;;;8365100;28;20289;-50
2022/04/09 07:47:39;;;;;;;;;;;17.90;37.30;;;;;;8367839;28;19948;-51
2022/04/09 07:51:40;;;;;;;;;;;17.90;37.20;;;;;;8367874;28;19928;-50
2022/04/09 07:55:40;;;;;;;;;;;17.90;37.20;;;;;;8367512;28;20355;-50
2022/04/09 07:59:40;;;;;;;;;;;17.90;37.30;;;;;;8367151;28;19921;-50
2022/04/09 08:03:41;;;;;;;;;;;17.90;37.20;;;;;;8367620;28;19921;-50
2022/04/09 08:07:41;;;;;;;;;;;17.90;37.20;;;;;;8367767;28;19995;-51
2022/04/09 08:11:42;;;;;;;;;;;17.90;37.20;;;;;;8366695;28;19920;-53
2022/04/09 08:15:42;;;;;;;;;;;17.90;37.20;;;;;;8367119;28;19923;-50
2022/04/09 08:19:43;;;;;;;;;;;17.90;37.10;;;;;;8366921;28;19920;-53
2022/04/09 08:23:43;;;;;;;;;;;18.00;37.20;;;;;;8366138;28;19924;-50
2022/04/09 08:27:45;;;;;;;;;;;18.00;37.20;;;;;;8366868;28;19917;-50
2022/04/09 08:31:47;;;;;;;;;;;18.00;37.20;;;;;;8366470;28;19948;-48
2022/04/09 08:35:48;;;;;;;;;;;18.00;37.20;;;;;;8366190;28;19924;-50
2022/04/09 08:39:49;;;;;;;;;;;18.00;37.20;;;;;;8365401;28;20270;-52
2022/04/09 08:43:50;;;;;;;;;;;18.00;37.20;;;;;;8365973;28;19925;-50
2022/04/09 08:47:51;;;;;;;;;;;18.00;37.20;;;;;;8365746;28;19924;-53
2022/04/09 08:51:51;;;;;;;;;;;18.10;37.20;;;;;;8365750;28;19950;-50
2022/04/09 08:55:53;;;;;;;;;;;18.10;37.20;;;;;;8365662;28;19913;-50
2022/04/09 08:59:54;;;;;;;;;;;18.10;37.20;;;;;;8365062;28;19928;-50
2022/04/09 09:03:54;;;;;;;;;;;18.10;37.20;;;;;;8365370;28;19920;-52
2022/04/09 09:07:55;;;;;;;;;;;18.10;37.00;;;;;;8365716;28;19996;-53
2022/04/09 09:11:57;;;;;;;;;;;18.10;37.10;;;;;;8364682;28;19916;-50
2022/04/09 09:15:57;;;;;;;;;;;18.10;37.10;;;;;;8364969;28;19924;-48
2022/04/09 09:19:58;;;;;;;;;;;18.20;37.20;;;;;;8362740;28;20061;-53
2022/04/09 09:24:12;;;;;;;;;;;18.20;37.20;;;;;;8364306;28;19928;-52
2022/04/09 09:28:13;;;;;;;;;;;18.20;37.20;;;;;;8365022;28;19917;-50
2022/04/09 09:32:24;;;;;;;;;;;18.20;37.10;;;;;;8364559;28;19982;-52
2022/04/09 09:36:31;;;;;;;;;;;18.20;37.10;;;;;;8364365;28;20328;-48
2022/04/09 09:40:32;;;;;;;;;;;18.30;37.10;;;;;;8364497;28;19913;-50
2022/04/09 09:44:41;;;;;;;;;;;18.30;37.10;;;;;;8363742;28;19935;-51
2022/04/09 09:48:49;;;;;;;;;;;18.30;37.00;;;;;;8364211;28;19932;-49
2022/04/09 09:53:02;;;;;;;;;;;18.30;37.10;;;;;;8363997;28;19917;-49
2022/04/09 09:57:02;;;;;;;;;;;18.40;37.00;;;;;;8363152;28;20484;-49
2022/04/09 10:01:03;;;;;;;;;;;18.40;37.00;;;;;;8362538;28;19928;-50
2022/04/09 10:05:04;;;;;;;;;;;18.40;37.00;;;;;;8363589;28;20000;-50
2022/04/09 10:09:08;;;;;;;;;;;18.40;37.20;;;;;;8363158;28;20003;-51
2022/04/09 10:13:08;;;;;;;;;;;18.50;37.40;;;;;;8363267;28;19923;-51
2022/04/09 10:17:10;;;;;;;;;;;18.50;37.40;;;;;;8363341;28;20035;-53
2022/04/09 10:21:10;;;;;;;;;;;18.60;37.40;;;;;;8362415;28;19917;-48
2022/04/09 10:25:13;;;;;;;;;;;18.70;37.40;;;;;;8362900;28;20354;-50
2022/04/09 10:29:14;;;;;;;;;;;18.70;37.40;;;;;;8363125;28;19978;-49
2022/04/09 10:33:22;;;;;;;;;;;18.70;37.30;;;;;;8362328;28;20358;-49
2022/04/09 10:37:22;;;;;;;;;;;18.80;37.30;;;;;;8363085;28;19916;-50
2022/04/09 10:41:23;;;;;;;;;;;18.80;37.20;;;;;;8362284;28;20408;-48
2022/04/09 10:45:24;;;;;;;;;;;18.80;37.20;;;;;;8362664;28;20003;-49
2022/04/09 10:49:25;;;;;;;;;;;18.90;37.20;;;;;;8362898;28;19924;-51
2022/04/09 10:53:26;;;;;;;;;;;18.90;37.20;;;;;;8362359;28;20008;-48
2022/04/09 10:57:27;;;;;;;;;;;18.90;37.10;;;;;;8362493;28;19925;-51
2022/04/09 11:01:49;;;;;;;;;;;18.90;37.00;;;;;;8362556;28;19925;-49
2022/04/09 11:05:50;;;;;;;;;;;18.90;37.00;;;;;;8368557;28;20385;-48
2022/04/09 11:09:53;;;;;;;;;;;18.80;37.00;;;;;;8368936;28;19999;-50
2022/04/09 11:13:54;;;;;;;;;;;18.90;37.00;;;;;;8369243;28;20276;-50
2022/04/09 11:17:58;;;;;;;;;;;18.90;37.00;;;;;;8368461;28;19917;-50
2022/04/09 11:21:59;;;;;;;;;;;18.90;37.00;;;;;;8368849;28;20055;-48
2022/04/09 11:25:59;;;;;;;;;;;18.90;36.90;;;;;;8368393;28;19917;-48
2022/04/09 11:30:00;;;;;;;;;;;19.00;37.00;;;;;;8368472;28;19931;-50
2022/04/09 11:34:00;;;;;;;;;;;19.00;36.80;;;;;;8350617;28;19912;-52
2022/04/09 11:38:01;;;;;;;;;;;19.00;36.80;;;;;;8368329;28;20054;-49
2022/04/09 11:42:03;;;;;;;;;;;19.00;36.70;;;;;;8367653;28;20297;-48
2022/04/09 11:46:04;;;;;;;;;;;19.00;36.70;;;;;;8368194;28;20377;-49
2022/04/09 11:50:04;;;;;;;;;;;19.00;37.20;;;;;;8367850;28;19920;-50
2022/04/09 11:54:17;;;;;;;;;;;19.00;36.80;;;;;;8367610;28;19913;-52
2022/04/09 11:58:20;;;;;;;;;;;19.00;36.70;;;;;;8367559;28;19924;-51
2022/04/09 12:02:22;;;;;;;;;;;19.00;36.60;;;;;;8366891;28;20286;-47
2022/04/09 12:06:22;;;;;;;;;;;19.10;36.70;;;;;;8367500;28;19924;-50
2022/04/09 12:10:26;;;;;;;;;;;19.10;36.50;;;;;;8367264;28;19921;-49
2022/04/09 12:14:27;;;;;;;;;;;19.00;36.50;;;;;;8365651;28;20423;-52
2022/04/09 12:18:31;;;;;;;;;;;19.00;36.60;;;;;;8367002;28;19917;-50
2022/04/09 12:22:31;;;;;;;;;;;19.10;36.60;;;;;;8366976;28;19924;-47
2022/04/09 12:26:33;;;;;;;;;;;19.00;36.50;;;;;;8366190;28;20015;-49
2022/04/09 12:30:41;;;;;;;;;;;19.00;36.50;;;;;;8389200;28;19921;-48
2022/04/09 12:34:51;;;;;;;;;;;19.00;36.50;;;;;;8334536;28;19913;-49
2022/04/09 12:38:51;;;;;;;;;;;19.00;36.50;;;;;;8332978;28;19917;-48
2022/04/09 12:42:52;;;;;;;;;;;19.00;36.40;;;;;;8333086;28;19932;-49
2022/04/09 12:46:53;;;;;;;;;;;18.90;36.40;;;;;;8333184;28;20346;-50
2022/04/09 12:50:53;;;;;;;;;;;19.00;36.40;;;;;;8332444;28;19979;-47
2022/04/09 12:54:54;;;;;;;;;;;19.00;36.30;;;;;;8333202;28;19913;-48
2022/04/09 12:58:55;;;;;;;;;;;18.90;36.40;;;;;;8333300;28;19968;-47
2022/04/09 13:02:55;;;;;;;;;;;19.00;36.40;;;;;;8332164;28;19952;-52
2022/04/09 13:06:55;;;;;;;;;;;19.00;36.30;;;;;;8333266;28;19917;-51
2022/04/09 13:10:56;;;;;;;;;;;19.00;36.40;;;;;;8365331;28;20396;-49
2022/04/09 13:14:57;;;;;;;;;;;19.00;36.30;;;;;;8365213;28;20389;-48
2022/04/09 13:18:57;;;;;;;;;;;19.00;36.30;;;;;;8365341;28;19921;-48
2022/04/09 13:22:58;;;;;;;;;;;19.00;36.30;;;;;;8365110;28;19971;-48
2022/04/09 13:26:58;;;;;;;;;;;19.00;36.20;;;;;;8363823;28;19917;-49
2022/04/09 13:30:59;;;;;;;;;;;19.00;36.20;;;;;;8364812;28;20270;-49
2022/04/09 13:34:59;;;;;;;;;;;19.00;36.20;;;;;;8364685;28;19913;-49
2022/04/09 13:39:00;;;;;;;;;;;19.00;36.20;;;;;;8364333;28;20003;-52
2022/04/09 13:43:00;;;;;;;;;;;19.00;36.20;;;;;;8364253;28;20433;-52
2022/04/09 13:47:01;;;;;;;;;;;19.10;36.10;;;;;;8364395;28;19924;-52
2022/04/09 13:51:01;;;;;;;;;;;19.10;36.00;;;;;;8363577;28;19921;-50
2022/04/09 13:55:02;;;;;;;;;;;19.10;36.10;;;;;;8364400;28;19943;-49
2022/04/09 13:59:03;;;;;;;;;;;19.10;36.10;;;;;;8364308;28;19960;-51
2022/04/09 14:03:03;;;;;;;;;;;19.10;36.10;;;;;;8363177;28;19980;-50
2022/04/09 14:07:04;;;;;;;;;;;19.10;36.10;;;;;;8363844;28;19975;-48
2022/04/09 14:11:06;;;;;;;;;;;19.10;35.90;;;;;;8362722;28;22346;-49
2022/04/09 14:15:07;;;;;;;;;;;19.10;36.00;;;;;;8363260;28;19917;-47
2022/04/09 14:19:07;;;;;;;;;;;19.10;35.90;;;;;;8363562;28;19925;-48
2022/04/09 14:23:08;;;;;;;;;;;19.10;35.90;;;;;;8363227;28;19964;-49
2022/04/09 14:27:08;;;;;;;;;;;19.10;35.90;;;;;;8362580;28;19963;-47
2022/04/09 14:31:09;;;;;;;;;;;19.20;35.80;;;;;;8363018;28;19913;-52
2022/04/09 14:35:10;;;;;;;;;;;19.20;35.90;;;;;;8363114;28;19966;-48
2022/04/09 14:39:11;;;;;;;;;;;19.20;35.70;;;;;;8361709;28;19917;-50
2022/04/09 14:43:12;;;;;;;;;;;19.20;35.80;;;;;;8362805;28;19955;-50
2022/04/09 14:47:12;;;;;;;;;;;19.20;35.70;;;;;;8362889;28;19917;-54
2022/04/09 14:51:13;;;;;;;;;;;19.20;35.70;;;;;;8362415;28;19916;-50
2022/04/09 14:55:14;;;;;;;;;;;19.20;35.70;;;;;;8363189;28;20278;-48
2022/04/09 14:59:14;;;;;;;;;;;19.20;35.70;;;;;;8362739;28;19925;-46
2022/04/09 15:03:15;;;;;;;;;;;19.20;35.70;;;;;;8361957;28;19925;-49
2022/04/09 15:07:15;;;;;;;;;;;19.20;35.60;;;;;;8362396;28;20011;-49
2022/04/09 15:11:16;;;;;;;;;;;19.20;35.60;;;;;;8362555;28;19990;-52
2022/04/09 15:15:16;;;;;;;;;;;19.20;35.60;;;;;;8362001;28;19913;-47
2022/04/09 15:19:17;;;;;;;;;;;19.20;35.60;;;;;;8362623;28;19927;-48
2022/04/09 15:23:18;;;;;;;;;;;19.20;35.50;;;;;;8344020;28;19936;-53
2022/04/09 15:27:18;;;;;;;;;;;19.20;35.60;;;;;;8362468;28;19923;-50
2022/04/09 15:31:19;;;;;;;;;;;19.20;35.60;;;;;;8362243;28;19922;-48
2022/04/09 15:35:20;;;;;;;;;;;19.20;35.40;;;;;;8361846;28;19963;-49
2022/04/09 15:39:20;;;;;;;;;;;19.20;35.50;;;;;;8362332;28;19924;-48
2022/04/09 15:43:20;;;;;;;;;;;19.20;35.50;;;;;;8361809;28;19932;-50
2022/04/09 15:47:21;;;;;;;;;;;19.20;35.40;;;;;;8361563;28;19917;-48
2022/04/09 15:51:21;;;;;;;;;;;19.20;35.40;;;;;;8368042;28;19913;-49
2022/04/09 15:55:22;;;;;;;;;;;19.20;35.50;;;;;;8367641;28;19925;-50
2022/04/09 15:59:23;;;;;;;;;;;19.10;35.40;;;;;;8367490;28;20247;-47
2022/04/09 16:03:23;;;;;;;;;;;19.10;35.30;;;;;;8367844;28;19929;-47
2022/04/09 16:07:24;;;;;;;;;;;19.20;35.30;;;;;;8366438;28;19928;-47
2022/04/09 16:11:24;;;;;;;;;;;19.10;35.30;;;;;;8366929;28;19913;-47
2022/04/09 16:15:26;;;;;;;;;;;19.10;35.30;;;;;;8366994;28;20323;-48
2022/04/09 16:19:28;;;;;;;;;;;19.20;35.40;;;;;;8366862;28;19983;-51
2022/04/09 16:23:29;;;;;;;;;;;19.10;35.40;;;;;;8366151;28;19925;-50
2022/04/09 16:27:29;;;;;;;;;;;19.10;35.30;;;;;;8366748;28;19940;-48
2022/04/09 16:31:30;;;;;;;;;;;19.10;35.30;;;;;;8366932;28;19920;-51
2022/04/09 16:35:32;;;;;;;;;;;19.10;35.40;;;;;;8366114;28;19970;-48
2022/04/09 16:39:33;;;;;;;;;;;19.10;35.30;;;;;;8366359;28;19924;-47
2022/04/09 16:43:34;;;;;;;;;;;19.10;35.20;;;;;;8366085;28;20006;-49
2022/04/09 16:47:34;;;;;;;;;;;19.10;35.30;;;;;;8365736;28;20035;-51
2022/04/09 16:51:34;;;;;;;;;;;19.10;35.30;;;;;;8366194;28;19920;-48
2022/04/09 16:55:36;;;;;;;;;;;19.10;35.10;;;;;;8366016;28;19924;-48
2022/04/09 16:59:37;;;;;;;;;;;19.10;35.30;;;;;;8364574;28;19921;-47
2022/04/09 17:03:37;;;;;;;;;;;19.10;35.30;;;;;;8365776;28;20328;-50
2022/04/09 17:07:37;;;;;;;;;;;19.10;35.20;;;;;;8365402;28;19921;-48
2022/04/09 17:11:38;;;;;;;;;;;19.10;35.30;;;;;;8364921;28;19917;-48
2022/04/09 17:15:38;;;;;;;;;;;19.10;35.40;;;;;;8365328;28;19916;-51
2022/04/09 17:19:39;;;;;;;;;;;19.10;35.40;;;;;;8365179;28;20019;-49
2022/04/09 17:23:40;;;;;;;;;;;19.00;35.30;;;;;;8364255;28;19940;-50
2022/04/09 17:27:40;;;;;;;;;;;19.00;35.30;;;;;;8365171;28;19996;-49
2022/04/09 17:31:41;;;;;;;;;;;19.00;35.40;;;;;;8365008;28;19913;-50
2022/04/09 17:35:42;;;;;;;;;;;19.00;35.40;;;;;;8364223;28;19999;-48
2022/04/09 17:39:42;;;;;;;;;;;19.00;35.40;;;;;;8364825;28;19956;-50
2022/04/09 17:43:43;;;;;;;;;;;18.90;35.30;;;;;;8364479;28;20397;-50
2022/04/09 17:47:43;;;;;;;;;;;19.00;35.60;;;;;;8363797;28;20338;-48
2022/04/09 17:51:44;;;;;;;;;;;19.00;35.80;;;;;;8364515;28;19919;-53
2022/04/09 17:55:45;;;;;;;;;;;19.00;35.70;;;;;;8364066;28;19920;-49
2022/04/09 17:59:45;;;;;;;;;;;19.00;35.60;;;;;;8363357;28;20014;-48
2022/04/09 18:03:46;;;;;;;;;;;18.90;35.60;;;;;;8363689;28;20373;-50
2022/04/09 18:07:46;;;;;;;;;;;18.90;35.50;;;;;;8363766;28;19956;-51
2022/04/09 18:11:47;;;;;;;;;;;18.90;35.30;;;;;;8363283;28;19917;-49
2022/04/09 18:15:47;;;;;;;;;;;18.90;35.30;;;;;;8363937;28;19929;-48
2022/04/09 18:19:48;;;;;;;;;;;18.90;35.30;;;;;;8363755;28;19917;-52
2022/04/09 18:23:48;;;;;;;;;;;18.90;35.30;;;;;;8362918;28;19936;-52
2022/04/09 18:27:49;;;;;;;;;;;18.90;35.30;;;;;;8363295;28;20280;-51
2022/04/09 18:31:49;;;;;;;;;;;18.90;35.30;;;;;;8363427;28;19917;-50
2022/04/09 18:35:49;;;;;;;;;;;18.90;35.30;;;;;;8362603;28;20407;-49
2022/04/09 18:39:50;;;;;;;;;;;18.90;35.40;;;;;;8363499;28;19943;-49
2022/04/09 18:43:50;;;;;;;;;;;18.90;35.40;;;;;;8362958;28;19932;-48
2022/04/09 18:47:51;;;;;;;;;;;18.90;35.40;;;;;;8362475;28;19913;-51
2022/04/09 18:51:51;;;;;;;;;;;18.90;35.40;;;;;;8363709;28;19913;-49
2022/04/09 18:55:52;;;;;;;;;;;18.90;35.40;;;;;;8362883;28;19917;-51
2022/04/09 18:59:52;;;;;;;;;;;18.80;35.40;;;;;;8362566;28;20202;-50
2022/04/09 19:03:53;;;;;;;;;;;18.90;35.40;;;;;;8362892;28;20277;-49
2022/04/09 19:07:53;;;;;;;;;;;18.80;35.40;;;;;;8362853;28;20047;-49
2022/04/09 19:11:53;;;;;;;;;;;18.90;35.50;;;;;;8337126;28;20382;-50
2022/04/09 19:15:54;;;;;;;;;;;18.80;35.50;;;;;;8329351;28;20032;-48
2022/04/09 19:19:57;;;;;;;;;;;18.80;35.40;;;;;;8329638;28;19913;-49
2022/04/09 19:23:57;;;;;;;;;;;18.80;35.50;;;;;;8331634;28;20305;-50
2022/04/09 19:27:58;;;;;;;;;;;18.80;35.50;;;;;;8335809;28;19921;-48
2022/04/09 19:31:59;;;;;;;;;;;18.80;35.50;;;;;;8336032;28;20343;-50
2022/04/09 19:35:59;;;;;;;;;;;18.80;35.50;;;;;;8335080;28;19948;-50
2022/04/09 19:40:02;;;;;;;;;;;18.80;35.50;;;;;;8335537;28;19917;-46
2022/04/09 19:44:03;;;;;;;;;;;18.80;35.60;;;;;;8335497;28;19926;-48
2022/04/09 19:48:03;;;;;;;;;;;18.80;35.60;;;;;;8334725;28;19924;-52
2022/04/09 19:52:04;;;;;;;;;;;18.80;35.60;;;;;;8335210;28;20004;-49
2022/04/09 19:56:04;;;;;;;;;;;18.70;35.50;;;;;;8334862;28;19923;-49
2022/04/09 20:00:06;;;;;;;;;;;18.70;35.60;;;;;;8334491;28;19928;-52
2022/04/09 20:04:07;;;;;;;;;;;18.70;35.60;;;;;;8335540;28;20375;-53
2022/04/09 20:08:08;;;;;;;;;;;18.70;35.50;;;;;;8335543;28;19925;-52
2022/04/09 20:12:09;;;;;;;;;;;18.70;35.50;;;;;;8335068;28;19917;-52
2022/04/09 20:16:09;;;;;;;;;;;18.70;35.50;;;;;;8334782;28;19944;-50
2022/04/09 20:20:10;;;;;;;;;;;18.70;35.50;;;;;;8334812;28;19913;-50
2022/04/09 20:24:14;;;;;;;;;;;18.70;35.40;;;;;;8334011;28;20370;-49
2022/04/09 20:28:14;;;;;;;;;;;18.70;36.00;;;;;;8334402;28;19913;-51
2022/04/09 20:32:15;;;;;;;;;;;18.70;36.00;;;;;;8333877;28;19940;-49
2022/04/09 20:36:15;;;;;;;;;;;18.70;35.40;;;;;;8332190;28;19943;-50
2022/04/09 20:40:16;;;;;;;;;;;18.70;35.30;;;;;;8333850;28;20348;-53
2022/04/09 20:44:16;;;;;;;;;;;18.70;35.30;;;;;;8333573;28;19925;-51
2022/04/09 20:48:17;;;;;;;;;;;18.70;35.30;;;;;;8333139;28;20380;-53
2022/04/09 20:52:18;;;;;;;;;;;18.70;35.20;;;;;;8333284;28;19921;-49
2022/04/09 20:56:20;;;;;;;;;;;18.70;35.30;;;;;;8332665;28;19949;-49
2022/04/09 21:00:20;;;;;;;;;;;18.70;35.20;;;;;;8332648;28;19929;-50
2022/04/09 21:04:21;;;;;;;;;;;18.70;35.20;;;;;;8332883;28;19944;-52
2022/04/09 21:08:21;;;;;;;;;;;18.70;35.20;;;;;;8332615;28;19924;-50
2022/04/09 21:12:22;;;;;;;;;;;18.70;35.20;;;;;;8332447;28;19917;-49
2022/04/09 21:16:23;;;;;;;;;;;18.60;35.20;;;;;;8332563;28;19917;-51
2022/04/09 21:20:24;;;;;;;;;;;18.60;35.30;;;;;;8331855;28;19917;-50
2022/04/09 21:24:24;;;;;;;;;;;18.60;35.20;;;;;;8332384;28;20378;-51
2022/04/09 21:28:25;;;;;;;;;;;18.60;35.20;;;;;;8332232;28;19924;-49
2022/04/09 21:32:25;;;;;;;;;;;18.60;35.20;;;;;;8331560;28;20341;-49
2022/04/09 21:36:26;;;;;;;;;;;18.60;35.20;;;;;;8332073;28;19917;-49
2022/04/09 21:40:27;;;;;;;;;;;18.60;35.30;;;;;;8331625;28;19920;-49
2022/04/09 21:44:28;;;;;;;;;;;18.60;35.30;;;;;;8331155;28;19983;-50
2022/04/09 21:48:28;;;;;;;;;;;18.60;35.30;;;;;;8331351;28;20378;-50
2022/04/09 21:52:29;;;;;;;;;;;18.60;35.30;;;;;;8331183;28;19971;-48
2022/04/09 21:56:29;;;;;;;;;;;18.50;35.30;;;;;;8330724;28;19914;-51
2022/04/09 22:00:54;;;;;;;;;;;18.50;35.30;;;;;;8334040;28;19944;-54
2022/04/09 22:04:55;;;;;;;;;;;18.50;35.30;;;;;;8364183;28;19921;-51
2022/04/09 22:08:55;;;;;;;;;;;18.50;35.30;;;;;;8363643;28;19916;-51
2022/04/09 22:12:56;;;;;;;;;;;18.50;35.30;;;;;;8362632;28;19916;-51
2022/04/09 22:16:57;;;;;;;;;;;18.50;35.40;;;;;;8363662;28;19931;-50
2022/04/09 22:20:57;;;;;;;;;;;18.50;35.30;;;;;;8363124;28;20505;-50
2022/04/09 22:24:58;;;;;;;;;;;18.40;35.30;;;;;;8363641;28;19978;-51
2022/04/09 22:28:58;;;;;;;;;;;18.40;35.30;;;;;;8363587;28;20004;-52
2022/04/09 22:32:59;;;;;;;;;;;18.50;35.30;;;;;;8362975;28;19916;-47
2022/04/09 22:36:59;;;;;;;;;;;18.40;35.30;;;;;;8363187;28;20019;-51
2022/04/09 22:41:00;;;;;;;;;;;18.40;35.30;;;;;;8363012;28;19920;-49
2022/04/09 22:45:03;;;;;;;;;;;18.40;35.30;;;;;;8362564;28;20033;-49
2022/04/09 22:49:04;;;;;;;;;;;18.40;35.30;;;;;;8363462;28;19913;-49
2022/04/09 22:53:04;;;;;;;;;;;18.40;35.30;;;;;;8362919;28;20425;-49
2022/04/09 22:57:05;;;;;;;;;;;18.40;35.30;;;;;;8362280;28;19917;-50
2022/04/09 23:01:05;;;;;;;;;;;18.40;35.30;;;;;;8369494;28;19921;-48
2022/04/09 23:05:06;;;;;;;;;;;18.40;35.30;;;;;;8369337;28;20305;-48
2022/04/09 23:09:07;;;;;;;;;;;18.40;35.30;;;;;;8369288;28;19917;-50
2022/04/09 23:13:07;;;;;;;;;;;18.40;35.30;;;;;;8369315;28;19963;-49
2022/04/09 23:17:08;;;;;;;;;;;18.30;35.30;;;;;;8369236;28;19924;-51
2022/04/09 23:21:09;;;;;;;;;;;18.40;35.40;;;;;;8368529;28;20396;-48